sensor_id;sensor_type;location;lat;lon;timestamp;temperature;humidity
20744;DHT22;56303;52.160;-0.428;2022-11-18T00:01:12;9.90;99.90
20744;DHT22;56303;52.160;-0.428;2022-11-18T00:03:40;10.00;99.90
20744;DHT22;56303;52.160;-0.428;2022-11-18T00:06:10;10.00;99.90
20744;DHT22;56303;52.160;-0.428;2022-11-18T00:08:37;9.80;99.90
20744;DHT22;56303;52.160;-0.428;2022-11-18T00:11:10;9.90;99.90
20744;DHT22;56303;52.160;-0.428;2022-11-18T00:13:37;9.80;99.90
20744;DHT22;56303;52.160;-0.428;2022-11-18T00:16:23;9.80;99.90
20744;DHT22;56303;52.160;-0.428;2022-11-18T00:18:50;10.00;99.90
20744;DHT22;56303;52.160;-0.428;2022-11-18T00:21:17;10.00;99.90
20744;DHT22;56303;52.160;-0.428;2022-11-18T00:23:45;9.90;99.90
20744;DHT22;56303;52.160;-0.428;2022-11-18T00:26:14;10.00;99.90
20744;DHT22;56303;52.160;-0.428;2022-11-18T00:28:41;9.90;99.90
20744;DHT22;56303;52.160;-0.428;2022-11-18T00:31:10;10.00;99.90
20744;DHT22;56303;52.160;-0.428;2022-11-18T00:33:38;10.00;99.90
20744;DHT22;56303;52.160;-0.428;2022-11-18T00:36:07;10.10;99.90
20744;DHT22;56303;52.160;-0.428;2022-11-18T00:38:34;10.10;99.90
20744;DHT22;56303;52.160;-0.428;2022-11-18T00:41:07;10.10;99.90
20744;DHT22;56303;52.160;-0.428;2022-11-18T00:43:35;10.10;99.90
20744;DHT22;56303;52.160;-0.428;2022-11-18T00:46:02;10.30;99.90
20744;DHT22;56303;52.160;-0.428;2022-11-18T00:48:29;10.00;99.90
20744;DHT22;56303;52.160;-0.428;2022-11-18T00:50:58;10.00;99.90
20744;DHT22;56303;52.160;-0.428;2022-11-18T00:53:26;10.10;99.90
20744;DHT22;56303;52.160;-0.428;2022-11-18T00:55:53;10.00;99.90
20744;DHT22;56303;52.160;-0.428;2022-11-18T00:58:20;10.00;99.90
20744;DHT22;56303;52.160;-0.428;2022-11-18T01:00:50;10.10;99.90
20744;DHT22;56303;52.160;-0.428;2022-11-18T01:03:19;10.00;99.90
20744;DHT22;56303;52.160;-0.428;2022-11-18T01:05:46;10.30;99.90
20744;DHT22;56303;52.160;-0.428;2022-11-18T01:08:13;10.10;99.90
20744;DHT22;56303;52.160;-0.428;2022-11-18T01:10:40;10.20;99.90
20744;DHT22;56303;52.160;-0.428;2022-11-18T01:13:12;10.00;99.90
20744;DHT22;56303;52.160;-0.428;2022-11-18T01:15:52;10.00;99.90
20744;DHT22;56303;52.160;-0.428;2022-11-18T01:18:22;10.10;99.90
20744;DHT22;56303;52.160;-0.428;2022-11-18T01:20:50;10.00;99.90
20744;DHT22;56303;52.160;-0.428;2022-11-18T01:23:18;10.00;99.90
20744;DHT22;56303;52.160;-0.428;2022-11-18T01:25:47;10.10;99.90
20744;DHT22;56303;52.160;-0.428;2022-11-18T01:28:16;10.10;99.90
20744;DHT22;56303;52.160;-0.428;2022-11-18T01:30:49;10.30;99.90
20744;DHT22;56303;52.160;-0.428;2022-11-18T01:33:16;10.30;99.90
20744;DHT22;56303;52.160;-0.428;2022-11-18T01:35:43;10.30;99.90
20744;DHT22;56303;52.160;-0.428;2022-11-18T01:38:11;10.20;99.90
20744;DHT22;56303;52.160;-0.428;2022-11-18T01:40:39;10.30;99.90
20744;DHT22;56303;52.160;-0.428;2022-11-18T01:43:15;10.30;99.90
20744;DHT22;56303;52.160;-0.428;2022-11-18T01:45:45;10.30;99.90
20744;DHT22;56303;52.160;-0.428;2022-11-18T01:48:44;10.30;99.90
20744;DHT22;56303;52.160;-0.428;2022-11-18T01:51:14;10.30;99.90
20744;DHT22;56303;52.160;-0.428;2022-11-18T01:53:50;10.40;99.90
20744;DHT22;56303;52.160;-0.428;2022-11-18T01:56:27;10.50;99.90
20744;DHT22;56303;52.160;-0.428;2022-11-18T01:59:02;10.40;99.90
20744;DHT22;56303;52.160;-0.428;2022-11-18T02:01:31;10.30;99.90
20744;DHT22;56303;52.160;-0.428;2022-11-18T02:03:58;10.40;99.90
20744;DHT22;56303;52.160;-0.428;2022-11-18T02:06:25;10.40;99.90
20744;DHT22;56303;52.160;-0.428;2022-11-18T02:08:53;10.30;99.90
20744;DHT22;56303;52.160;-0.428;2022-11-18T02:11:20;10.30;99.90
20744;DHT22;56303;52.160;-0.428;2022-11-18T02:14:07;10.40;99.90
20744;DHT22;56303;52.160;-0.428;2022-11-18T02:30:23;10.30;99.90
20744;DHT22;56303;52.160;-0.428;2022-11-18T02:32:56;10.40;99.90
20744;DHT22;56303;52.160;-0.428;2022-11-18T02:35:32;10.40;99.90
20744;DHT22;56303;52.160;-0.428;2022-11-18T02:38:06;10.50;99.90
20744;DHT22;56303;52.160;-0.428;2022-11-18T02:40:42;10.40;99.90
20744;DHT22;56303;52.160;-0.428;2022-11-18T02:43:17;10.50;99.90
20744;DHT22;56303;52.160;-0.428;2022-11-18T02:45:49;10.30;99.90
20744;DHT22;56303;52.160;-0.428;2022-11-18T02:48:21;10.30;99.90
20744;DHT22;56303;52.160;-0.428;2022-11-18T02:50:50;10.30;99.90
20744;DHT22;56303;52.160;-0.428;2022-11-18T02:53:21;10.30;99.90
20744;DHT22;56303;52.160;-0.428;2022-11-18T02:55:50;10.30;99.90
20744;DHT22;56303;52.160;-0.428;2022-11-18T02:58:19;10.30;99.90
20744;DHT22;56303;52.160;-0.428;2022-11-18T03:00:58;10.30;99.90
20744;DHT22;56303;52.160;-0.428;2022-11-18T03:03:34;10.50;99.90
20744;DHT22;56303;52.160;-0.428;2022-11-18T03:09:16;10.40;99.90
20744;DHT22;56303;52.160;-0.428;2022-11-18T03:11:55;10.60;99.90
20744;DHT22;56303;52.160;-0.428;2022-11-18T03:17:15;10.70;99.90
20744;DHT22;56303;52.160;-0.428;2022-11-18T03:22:41;10.50;99.90
20744;DHT22;56303;52.160;-0.428;2022-11-18T03:30:37;10.40;99.90
20744;DHT22;56303;52.160;-0.428;2022-11-18T03:33:12;10.30;99.90
20744;DHT22;56303;52.160;-0.428;2022-11-18T03:35:44;10.50;99.90
20744;DHT22;56303;52.160;-0.428;2022-11-18T03:38:16;10.30;99.90
20744;DHT22;56303;52.160;-0.428;2022-11-18T03:40:49;10.20;99.90
20744;DHT22;56303;52.160;-0.428;2022-11-18T03:43:20;10.30;99.90
20744;DHT22;56303;52.160;-0.428;2022-11-18T03:45:54;10.20;99.90
20744;DHT22;56303;52.160;-0.428;2022-11-18T03:48:25;10.30;99.90
20744;DHT22;56303;52.160;-0.428;2022-11-18T03:51:04;10.30;99.90
20744;DHT22;56303;52.160;-0.428;2022-11-18T03:53:35;10.20;99.90
20744;DHT22;56303;52.160;-0.428;2022-11-18T03:56:09;10.30;99.90
20744;DHT22;56303;52.160;-0.428;2022-11-18T03:58:52;10.40;99.90
20744;DHT22;56303;52.160;-0.428;2022-11-18T04:01:38;10.40;99.90
20744;DHT22;56303;52.160;-0.428;2022-11-18T04:04:07;10.70;99.90
20744;DHT22;56303;52.160;-0.428;2022-11-18T04:07:02;10.50;99.90
20744;DHT22;56303;52.160;-0.428;2022-11-18T04:09:36;10.50;99.90
20744;DHT22;56303;52.160;-0.428;2022-11-18T04:12:10;10.50;99.90
20744;DHT22;56303;52.160;-0.428;2022-11-18T04:14:40;10.50;99.90
20744;DHT22;56303;52.160;-0.428;2022-11-18T04:17:19;10.50;99.90
20744;DHT22;56303;52.160;-0.428;2022-11-18T04:19:46;10.60;99.90
20744;DHT22;56303;52.160;-0.428;2022-11-18T04:22:14;10.60;99.90
20744;DHT22;56303;52.160;-0.428;2022-11-18T04:24:41;10.50;99.90
20744;DHT22;56303;52.160;-0.428;2022-11-18T04:27:07;10.40;99.90
20744;DHT22;56303;52.160;-0.428;2022-11-18T04:29:34;10.40;99.90
20744;DHT22;56303;52.160;-0.428;2022-11-18T04:32:02;10.50;99.90
20744;DHT22;56303;52.160;-0.428;2022-11-18T04:34:30;10.50;99.90
20744;DHT22;56303;52.160;-0.428;2022-11-18T04:36:57;10.40;99.90
20744;DHT22;56303;52.160;-0.428;2022-11-18T04:39:24;10.50;99.90
20744;DHT22;56303;52.160;-0.428;2022-11-18T04:41:51;10.50;99.90
20744;DHT22;56303;52.160;-0.428;2022-11-18T04:44:26;10.50;99.90
20744;DHT22;56303;52.160;-0.428;2022-11-18T04:46:54;10.50;99.90
20744;DHT22;56303;52.160;-0.428;2022-11-18T04:49:22;10.50;99.90
20744;DHT22;56303;52.160;-0.428;2022-11-18T04:51:50;10.40;99.90
20744;DHT22;56303;52.160;-0.428;2022-11-18T04:54:18;10.50;99.90
20744;DHT22;56303;52.160;-0.428;2022-11-18T04:56:45;10.50;99.90
20744;DHT22;56303;52.160;-0.428;2022-11-18T04:59:17;10.30;99.90
20744;DHT22;56303;52.160;-0.428;2022-11-18T05:01:46;10.40;99.90
20744;DHT22;56303;52.160;-0.428;2022-11-18T05:04:16;10.60;99.90
20744;DHT22;56303;52.160;-0.428;2022-11-18T05:06:43;10.60;99.90
20744;DHT22;56303;52.160;-0.428;2022-11-18T05:09:10;10.60;99.90
20744;DHT22;56303;52.160;-0.428;2022-11-18T05:11:37;10.70;99.90
20744;DHT22;56303;52.160;-0.428;2022-11-18T05:14:27;10.50;99.90
20744;DHT22;56303;52.160;-0.428;2022-11-18T05:16:55;10.70;99.90
20744;DHT22;56303;52.160;-0.428;2022-11-18T05:19:23;10.70;99.90
20744;DHT22;56303;52.160;-0.428;2022-11-18T05:21:50;10.50;99.90
20744;DHT22;56303;52.160;-0.428;2022-11-18T05:24:17;10.60;99.90
20744;DHT22;56303;52.160;-0.428;2022-11-18T05:26:44;10.60;99.90
20744;DHT22;56303;52.160;-0.428;2022-11-18T05:29:11;10.50;99.90
20744;DHT22;56303;52.160;-0.428;2022-11-18T05:31:38;10.60;99.90
20744;DHT22;56303;52.160;-0.428;2022-11-18T05:34:05;10.70;99.90
20744;DHT22;56303;52.160;-0.428;2022-11-18T05:36:32;10.60;99.90
20744;DHT22;56303;52.160;-0.428;2022-11-18T05:38:59;10.60;99.90
20744;DHT22;56303;52.160;-0.428;2022-11-18T05:41:26;10.60;99.90
20744;DHT22;56303;52.160;-0.428;2022-11-18T05:44:11;10.60;99.90
20744;DHT22;56303;52.160;-0.428;2022-11-18T05:46:38;10.60;99.90
20744;DHT22;56303;52.160;-0.428;2022-11-18T05:49:05;10.70;99.90
20744;DHT22;56303;52.160;-0.428;2022-11-18T05:51:33;10.60;99.90
20744;DHT22;56303;52.160;-0.428;2022-11-18T05:54:03;10.80;99.90
20744;DHT22;56303;52.160;-0.428;2022-11-18T05:56:39;10.80;99.90
20744;DHT22;56303;52.160;-0.428;2022-11-18T05:59:06;10.70;99.90
20744;DHT22;56303;52.160;-0.428;2022-11-18T06:01:47;10.60;99.90
20744;DHT22;56303;52.160;-0.428;2022-11-18T06:04:28;10.60;99.90
20744;DHT22;56303;52.160;-0.428;2022-11-18T06:07:04;10.60;99.90
20744;DHT22;56303;52.160;-0.428;2022-11-18T06:09:36;10.50;99.90
20744;DHT22;56303;52.160;-0.428;2022-11-18T06:12:05;10.60;99.90
20744;DHT22;56303;52.160;-0.428;2022-11-18T06:14:42;10.60;99.90
20744;DHT22;56303;52.160;-0.428;2022-11-18T06:17:15;10.50;99.90
20744;DHT22;56303;52.160;-0.428;2022-11-18T06:19:43;10.60;99.90
20744;DHT22;56303;52.160;-0.428;2022-11-18T06:22:10;10.50;99.90
20744;DHT22;56303;52.160;-0.428;2022-11-18T06:24:37;10.40;99.90
20744;DHT22;56303;52.160;-0.428;2022-11-18T06:27:05;10.60;99.90
20744;DHT22;56303;52.160;-0.428;2022-11-18T06:29:31;10.60;99.90
20744;DHT22;56303;52.160;-0.428;2022-11-18T06:31:58;10.60;99.90
20744;DHT22;56303;52.160;-0.428;2022-11-18T06:34:25;10.60;99.90
20744;DHT22;56303;52.160;-0.428;2022-11-18T06:36:52;10.50;99.90
20744;DHT22;56303;52.160;-0.428;2022-11-18T06:39:18;10.30;99.90
20744;DHT22;56303;52.160;-0.428;2022-11-18T06:41:46;10.50;99.90
20744;DHT22;56303;52.160;-0.428;2022-11-18T06:44:13;10.60;99.90
20744;DHT22;56303;52.160;-0.428;2022-11-18T06:46:40;10.60;99.90
20744;DHT22;56303;52.160;-0.428;2022-11-18T06:49:27;10.50;99.90
20744;DHT22;56303;52.160;-0.428;2022-11-18T06:51:54;10.50;99.90
20744;DHT22;56303;52.160;-0.428;2022-11-18T06:54:21;10.50;99.90
20744;DHT22;56303;52.160;-0.428;2022-11-18T06:56:47;10.60;99.90
20744;DHT22;56303;52.160;-0.428;2022-11-18T06:59:14;10.50;99.90
20744;DHT22;56303;52.160;-0.428;2022-11-18T07:01:47;10.50;99.90
20744;DHT22;56303;52.160;-0.428;2022-11-18T07:04:14;10.70;99.90
20744;DHT22;56303;52.160;-0.428;2022-11-18T07:06:40;10.60;99.90
20744;DHT22;56303;52.160;-0.428;2022-11-18T07:09:07;10.60;99.90
20744;DHT22;56303;52.160;-0.428;2022-11-18T07:11:34;10.70;99.90
20744;DHT22;56303;52.160;-0.428;2022-11-18T07:14:03;10.70;99.90
20744;DHT22;56303;52.160;-0.428;2022-11-18T07:16:30;10.60;99.90
20744;DHT22;56303;52.160;-0.428;2022-11-18T07:18:57;10.50;99.90
20744;DHT22;56303;52.160;-0.428;2022-11-18T07:21:27;10.50;99.90
20744;DHT22;56303;52.160;-0.428;2022-11-18T07:23:55;10.70;99.90
20744;DHT22;56303;52.160;-0.428;2022-11-18T07:26:22;10.40;99.90
20744;DHT22;56303;52.160;-0.428;2022-11-18T07:28:49;10.40;99.90
20744;DHT22;56303;52.160;-0.428;2022-11-18T07:31:18;10.60;99.90
20744;DHT22;56303;52.160;-0.428;2022-11-18T07:33:46;10.40;99.90
20744;DHT22;56303;52.160;-0.428;2022-11-18T07:36:18;10.40;99.90
20744;DHT22;56303;52.160;-0.428;2022-11-18T07:38:46;10.40;99.90
20744;DHT22;56303;52.160;-0.428;2022-11-18T07:41:22;10.50;99.90
20744;DHT22;56303;52.160;-0.428;2022-11-18T07:43:50;10.60;99.90
20744;DHT22;56303;52.160;-0.428;2022-11-18T07:46:31;10.60;99.90
20744;DHT22;56303;52.160;-0.428;2022-11-18T07:49:00;10.70;99.90
20744;DHT22;56303;52.160;-0.428;2022-11-18T07:51:29;10.70;99.90
20744;DHT22;56303;52.160;-0.428;2022-11-18T07:53:57;10.50;99.90
20744;DHT22;56303;52.160;-0.428;2022-11-18T07:56:23;10.40;99.90
20744;DHT22;56303;52.160;-0.428;2022-11-18T07:58:52;10.30;99.90
20744;DHT22;56303;52.160;-0.428;2022-11-18T08:01:22;10.30;99.90
20744;DHT22;56303;52.160;-0.428;2022-11-18T08:03:50;10.30;99.90
20744;DHT22;56303;52.160;-0.428;2022-11-18T08:06:18;10.20;99.90
20744;DHT22;56303;52.160;-0.428;2022-11-18T08:08:46;10.20;99.90
20744;DHT22;56303;52.160;-0.428;2022-11-18T08:11:18;9.80;99.90
20744;DHT22;56303;52.160;-0.428;2022-11-18T08:13:49;9.90;99.90
20744;DHT22;56303;52.160;-0.428;2022-11-18T08:16:19;9.70;99.90
20744;DHT22;56303;52.160;-0.428;2022-11-18T08:18:46;9.90;99.90
20744;DHT22;56303;52.160;-0.428;2022-11-18T08:21:14;9.90;99.90
20744;DHT22;56303;52.160;-0.428;2022-11-18T08:23:41;9.90;99.90
20744;DHT22;56303;52.160;-0.428;2022-11-18T08:26:10;9.70;99.90
20744;DHT22;56303;52.160;-0.428;2022-11-18T08:28:40;9.80;99.90
20744;DHT22;56303;52.160;-0.428;2022-11-18T08:31:11;9.70;99.90
20744;DHT22;56303;52.160;-0.428;2022-11-18T08:33:38;9.50;99.90
20744;DHT22;56303;52.160;-0.428;2022-11-18T08:36:11;9.80;99.90
20744;DHT22;56303;52.160;-0.428;2022-11-18T08:38:39;9.80;99.90
20744;DHT22;56303;52.160;-0.428;2022-11-18T08:41:06;9.60;99.90
20744;DHT22;56303;52.160;-0.428;2022-11-18T08:43:36;9.60;99.90
20744;DHT22;56303;52.160;-0.428;2022-11-18T08:46:03;9.70;99.90
20744;DHT22;56303;52.160;-0.428;2022-11-18T08:48:30;9.70;99.90
20744;DHT22;56303;52.160;-0.428;2022-11-18T08:50:57;9.60;99.90
20744;DHT22;56303;52.160;-0.428;2022-11-18T08:53:25;9.60;99.90
20744;DHT22;56303;52.160;-0.428;2022-11-18T08:55:59;9.80;99.90
20744;DHT22;56303;52.160;-0.428;2022-11-18T08:58:26;9.90;99.90
20744;DHT22;56303;52.160;-0.428;2022-11-18T09:00:53;9.90;99.90
20744;DHT22;56303;52.160;-0.428;2022-11-18T09:03:21;9.80;99.90
20744;DHT22;56303;52.160;-0.428;2022-11-18T09:05:48;10.00;99.90
20744;DHT22;56303;52.160;-0.428;2022-11-18T09:08:15;9.80;99.90
20744;DHT22;56303;52.160;-0.428;2022-11-18T09:10:42;9.90;99.90
20744;DHT22;56303;52.160;-0.428;2022-11-18T09:13:09;10.00;99.90
20744;DHT22;56303;52.160;-0.428;2022-11-18T09:15:59;10.10;99.90
20744;DHT22;56303;52.160;-0.428;2022-11-18T09:18:27;10.30;99.90
20744;DHT22;56303;52.160;-0.428;2022-11-18T09:20:59;10.30;99.90
20744;DHT22;56303;52.160;-0.428;2022-11-18T09:23:26;10.50;99.90
20744;DHT22;56303;52.160;-0.428;2022-11-18T09:26:00;10.50;99.90
20744;DHT22;56303;52.160;-0.428;2022-11-18T09:28:28;10.50;99.90
20744;DHT22;56303;52.160;-0.428;2022-11-18T09:30:55;10.40;99.90
20744;DHT22;56303;52.160;-0.428;2022-11-18T09:33:22;10.80;99.90
20744;DHT22;56303;52.160;-0.428;2022-11-18T09:35:49;10.60;99.90
20744;DHT22;56303;52.160;-0.428;2022-11-18T09:38:16;10.50;99.90
20744;DHT22;56303;52.160;-0.428;2022-11-18T09:43:36;10.40;99.90
20744;DHT22;56303;52.160;-0.428;2022-11-18T09:46:22;10.50;99.90
20744;DHT22;56303;52.160;-0.428;2022-11-18T09:49:00;10.50;99.90
20744;DHT22;56303;52.160;-0.428;2022-11-18T09:51:49;10.50;99.90
20744;DHT22;56303;52.160;-0.428;2022-11-18T09:54:27;10.40;99.90
20744;DHT22;56303;52.160;-0.428;2022-11-18T09:56:56;10.30;99.90
20744;DHT22;56303;52.160;-0.428;2022-11-18T09:59:25;10.30;99.90
20744;DHT22;56303;52.160;-0.428;2022-11-18T10:01:57;10.50;99.90
20744;DHT22;56303;52.160;-0.428;2022-11-18T10:04:28;10.50;99.90
20744;DHT22;56303;52.160;-0.428;2022-11-18T10:06:55;10.40;99.90
20744;DHT22;56303;52.160;-0.428;2022-11-18T10:12:17;10.40;99.90
20744;DHT22;56303;52.160;-0.428;2022-11-18T10:23:27;10.70;99.90
20744;DHT22;56303;52.160;-0.428;2022-11-18T10:25:55;10.80;99.90
20744;DHT22;56303;52.160;-0.428;2022-11-18T10:28:27;10.70;99.90
20744;DHT22;56303;52.160;-0.428;2022-11-18T10:33:32;10.70;99.90
20744;DHT22;56303;52.160;-0.428;2022-11-18T10:36:26;10.90;99.90
20744;DHT22;56303;52.160;-0.428;2022-11-18T10:39:11;11.00;99.90
20744;DHT22;56303;52.160;-0.428;2022-11-18T10:41:47;11.40;99.90
20744;DHT22;56303;52.160;-0.428;2022-11-18T10:44:34;11.40;99.90
20744;DHT22;56303;52.160;-0.428;2022-11-18T10:49:41;11.90;99.90
20744;DHT22;56303;52.160;-0.428;2022-11-18T10:52:11;11.60;99.90
20744;DHT22;56303;52.160;-0.428;2022-11-18T10:54:39;11.80;99.90
20744;DHT22;56303;52.160;-0.428;2022-11-18T10:57:22;11.90;99.90
20744;DHT22;56303;52.160;-0.428;2022-11-18T11:02:33;12.10;99.90
20744;DHT22;56303;52.160;-0.428;2022-11-18T11:05:02;12.40;99.90
20744;DHT22;56303;52.160;-0.428;2022-11-18T11:07:31;12.10;99.90
20744;DHT22;56303;52.160;-0.428;2022-11-18T11:10:19;12.00;99.90
20744;DHT22;56303;52.160;-0.428;2022-11-18T11:12:55;12.20;99.90
20744;DHT22;56303;52.160;-0.428;2022-11-18T11:15:46;12.00;99.90
20744;DHT22;56303;52.160;-0.428;2022-11-18T11:18:21;12.10;99.90
20744;DHT22;56303;52.160;-0.428;2022-11-18T11:21:25;12.60;99.90
20744;DHT22;56303;52.160;-0.428;2022-11-18T11:23:53;12.70;99.90
20744;DHT22;56303;52.160;-0.428;2022-11-18T11:26:21;12.80;99.90
20744;DHT22;56303;52.160;-0.428;2022-11-18T11:29:37;12.80;99.90
20744;DHT22;56303;52.160;-0.428;2022-11-18T11:32:29;12.70;99.90
20744;DHT22;56303;52.160;-0.428;2022-11-18T11:35:51;12.90;99.90
20744;DHT22;56303;52.160;-0.428;2022-11-18T11:38:25;13.30;99.90
20744;DHT22;56303;52.160;-0.428;2022-11-18T11:49:17;14.20;99.90
20744;DHT22;56303;52.160;-0.428;2022-11-18T11:52:05;13.70;99.90
20744;DHT22;56303;52.160;-0.428;2022-11-18T11:57:28;14.10;99.90
20744;DHT22;56303;52.160;-0.428;2022-11-18T12:00:12;14.20;99.90
20744;DHT22;56303;52.160;-0.428;2022-11-18T12:03:04;14.40;99.90
20744;DHT22;56303;52.160;-0.428;2022-11-18T12:05:37;14.50;99.90
20744;DHT22;56303;52.160;-0.428;2022-11-18T12:08:24;14.60;99.90
20744;DHT22;56303;52.160;-0.428;2022-11-18T12:11:12;14.70;99.90
20744;DHT22;56303;52.160;-0.428;2022-11-18T12:14:02;14.70;99.90
20744;DHT22;56303;52.160;-0.428;2022-11-18T12:16:52;15.10;99.90
20744;DHT22;56303;52.160;-0.428;2022-11-18T12:19:21;15.30;99.90
20744;DHT22;56303;52.160;-0.428;2022-11-18T12:24:28;15.70;99.90
20744;DHT22;56303;52.160;-0.428;2022-11-18T12:27:04;15.70;99.90
20744;DHT22;56303;52.160;-0.428;2022-11-18T12:35:22;15.40;99.90
20744;DHT22;56303;52.160;-0.428;2022-11-18T12:40:54;15.40;99.90
20744;DHT22;56303;52.160;-0.428;2022-11-18T12:51:52;15.10;99.90
20744;DHT22;56303;52.160;-0.428;2022-11-18T12:57:48;14.80;99.90
20744;DHT22;56303;52.160;-0.428;2022-11-18T12:59:49;14.30;99.90
20744;DHT22;56303;52.160;-0.428;2022-11-18T13:02:21;13.30;99.90
20744;DHT22;56303;52.160;-0.428;2022-11-18T13:05:20;13.10;99.90
20744;DHT22;56303;52.160;-0.428;2022-11-18T13:08:11;13.30;99.90
20744;DHT22;56303;52.160;-0.428;2022-11-18T13:13:30;13.80;99.90
20744;DHT22;56303;52.160;-0.428;2022-11-18T13:16:16;13.60;99.90
20744;DHT22;56303;52.160;-0.428;2022-11-18T13:19:04;13.20;99.90
20744;DHT22;56303;52.160;-0.428;2022-11-18T13:21:31;13.40;99.90
20744;DHT22;56303;52.160;-0.428;2022-11-18T13:24:18;13.00;99.90
20744;DHT22;56303;52.160;-0.428;2022-11-18T13:26:47;13.10;99.90
20744;DHT22;56303;52.160;-0.428;2022-11-18T13:34:50;13.20;99.90
20744;DHT22;56303;52.160;-0.428;2022-11-18T13:37:20;13.10;99.90
20744;DHT22;56303;52.160;-0.428;2022-11-18T13:39:48;13.20;99.90
20744;DHT22;56303;52.160;-0.428;2022-11-18T13:42:21;13.10;99.90
20744;DHT22;56303;52.160;-0.428;2022-11-18T13:52:29;13.10;99.90
20744;DHT22;56303;52.160;-0.428;2022-11-18T13:54:57;12.70;99.90
20744;DHT22;56303;52.160;-0.428;2022-11-18T13:57:26;12.70;99.90
20744;DHT22;56303;52.160;-0.428;2022-11-18T13:59:54;12.70;99.90
20744;DHT22;56303;52.160;-0.428;2022-11-18T14:02:21;12.90;99.90
20744;DHT22;56303;52.160;-0.428;2022-11-18T14:04:57;13.10;99.90
20744;DHT22;56303;52.160;-0.428;2022-11-18T14:09:59;12.90;99.90
20744;DHT22;56303;52.160;-0.428;2022-11-18T14:12:29;12.80;99.90
20744;DHT22;56303;52.160;-0.428;2022-11-18T14:15:34;12.70;99.90
20744;DHT22;56303;52.160;-0.428;2022-11-18T14:18:36;13.20;99.90
20744;DHT22;56303;52.160;-0.428;2022-11-18T14:21:04;13.10;99.90
20744;DHT22;56303;52.160;-0.428;2022-11-18T14:23:33;13.50;99.90
20744;DHT22;56303;52.160;-0.428;2022-11-18T14:26:03;13.50;99.90
20744;DHT22;56303;52.160;-0.428;2022-11-18T14:28:32;13.30;99.90
20744;DHT22;56303;52.160;-0.428;2022-11-18T14:33:38;13.20;99.90
20744;DHT22;56303;52.160;-0.428;2022-11-18T14:36:14;13.10;99.90
20744;DHT22;56303;52.160;-0.428;2022-11-18T14:38:46;13.10;99.90
20744;DHT22;56303;52.160;-0.428;2022-11-18T14:41:33;13.30;99.90
20744;DHT22;56303;52.160;-0.428;2022-11-18T14:44:12;13.40;99.90
20744;DHT22;56303;52.160;-0.428;2022-11-18T14:46:42;13.50;99.90
20744;DHT22;56303;52.160;-0.428;2022-11-18T14:49:15;13.30;99.90
20744;DHT22;56303;52.160;-0.428;2022-11-18T14:51:44;13.30;99.90
20744;DHT22;56303;52.160;-0.428;2022-11-18T14:54:15;13.30;99.90
20744;DHT22;56303;52.160;-0.428;2022-11-18T14:56:50;13.30;99.90
20744;DHT22;56303;52.160;-0.428;2022-11-18T14:59:19;13.70;99.90
20744;DHT22;56303;52.160;-0.428;2022-11-18T15:01:46;13.40;99.90
20744;DHT22;56303;52.160;-0.428;2022-11-18T15:04:14;13.30;99.90
20744;DHT22;56303;52.160;-0.428;2022-11-18T15:06:43;13.40;99.90
20744;DHT22;56303;52.160;-0.428;2022-11-18T15:09:10;13.40;99.90
20744;DHT22;56303;52.160;-0.428;2022-11-18T15:11:38;13.60;99.90
20744;DHT22;56303;52.160;-0.428;2022-11-18T15:14:05;13.30;99.90
20744;DHT22;56303;52.160;-0.428;2022-11-18T15:16:33;13.20;99.90
20744;DHT22;56303;52.160;-0.428;2022-11-18T15:19:03;12.70;99.90
20744;DHT22;56303;52.160;-0.428;2022-11-18T15:21:31;12.80;99.90
20744;DHT22;56303;52.160;-0.428;2022-11-18T15:23:58;12.80;99.90
20744;DHT22;56303;52.160;-0.428;2022-11-18T15:26:44;12.80;99.90
20744;DHT22;56303;52.160;-0.428;2022-11-18T15:29:20;12.80;99.90
20744;DHT22;56303;52.160;-0.428;2022-11-18T15:31:47;12.70;99.90
20744;DHT22;56303;52.160;-0.428;2022-11-18T15:34:17;12.90;99.90
20744;DHT22;56303;52.160;-0.428;2022-11-18T15:36:44;12.90;99.90
20744;DHT22;56303;52.160;-0.428;2022-11-18T15:39:11;12.90;99.90
20744;DHT22;56303;52.160;-0.428;2022-11-18T15:41:40;12.80;99.90
20744;DHT22;56303;52.160;-0.428;2022-11-18T15:44:08;12.90;99.90
20744;DHT22;56303;52.160;-0.428;2022-11-18T15:46:36;12.80;99.90
20744;DHT22;56303;52.160;-0.428;2022-11-18T15:49:03;13.10;99.90
20744;DHT22;56303;52.160;-0.428;2022-11-18T15:51:30;13.20;99.90
20744;DHT22;56303;52.160;-0.428;2022-11-18T15:53:58;12.80;99.90
20744;DHT22;56303;52.160;-0.428;2022-11-18T15:56:28;12.60;99.90
20744;DHT22;56303;52.160;-0.428;2022-11-18T15:59:00;12.10;99.90
20744;DHT22;56303;52.160;-0.428;2022-11-18T16:01:29;12.20;99.90
20744;DHT22;56303;52.160;-0.428;2022-11-18T16:03:56;12.00;99.90
20744;DHT22;56303;52.160;-0.428;2022-11-18T16:06:24;12.10;99.90
20744;DHT22;56303;52.160;-0.428;2022-11-18T16:08:51;12.20;99.90
20744;DHT22;56303;52.160;-0.428;2022-11-18T16:11:26;12.10;99.90
20744;DHT22;56303;52.160;-0.428;2022-11-18T16:14:31;12.10;99.90
20744;DHT22;56303;52.160;-0.428;2022-11-18T16:16:58;12.20;99.90
20744;DHT22;56303;52.160;-0.428;2022-11-18T16:19:25;12.30;99.90
20744;DHT22;56303;52.160;-0.428;2022-11-18T16:21:53;12.40;99.90
20744;DHT22;56303;52.160;-0.428;2022-11-18T16:24:24;12.20;99.90
20744;DHT22;56303;52.160;-0.428;2022-11-18T16:26:51;12.20;99.90
20744;DHT22;56303;52.160;-0.428;2022-11-18T16:29:19;12.20;99.90
20744;DHT22;56303;52.160;-0.428;2022-11-18T16:31:47;12.10;99.90
20744;DHT22;56303;52.160;-0.428;2022-11-18T16:36:49;11.90;99.90
20744;DHT22;56303;52.160;-0.428;2022-11-18T16:39:19;11.70;99.90
20744;DHT22;56303;52.160;-0.428;2022-11-18T16:41:52;11.90;99.90
20744;DHT22;56303;52.160;-0.428;2022-11-18T16:44:19;11.90;99.90
20744;DHT22;56303;52.160;-0.428;2022-11-18T16:46:49;11.70;99.90
20744;DHT22;56303;52.160;-0.428;2022-11-18T16:49:18;11.70;99.90
20744;DHT22;56303;52.160;-0.428;2022-11-18T16:51:47;12.00;99.90
20744;DHT22;56303;52.160;-0.428;2022-11-18T16:56:43;11.60;99.90
20744;DHT22;56303;52.160;-0.428;2022-11-18T16:59:21;11.60;99.90
20744;DHT22;56303;52.160;-0.428;2022-11-18T17:01:49;11.40;99.90
20744;DHT22;56303;52.160;-0.428;2022-11-18T17:04:16;11.50;99.90
20744;DHT22;56303;52.160;-0.428;2022-11-18T17:06:44;11.50;99.90
20744;DHT22;56303;52.160;-0.428;2022-11-18T17:09:23;11.60;99.90
20744;DHT22;56303;52.160;-0.428;2022-11-18T17:11:51;11.50;99.90
20744;DHT22;56303;52.160;-0.428;2022-11-18T17:14:19;11.50;99.90
20744;DHT22;56303;52.160;-0.428;2022-11-18T17:16:48;11.60;99.90
20744;DHT22;56303;52.160;-0.428;2022-11-18T17:19:17;11.60;99.90
20744;DHT22;56303;52.160;-0.428;2022-11-18T17:21:45;11.60;99.90
20744;DHT22;56303;52.160;-0.428;2022-11-18T17:24:15;11.70;99.90
20744;DHT22;56303;52.160;-0.428;2022-11-18T17:26:42;11.60;99.90
20744;DHT22;56303;52.160;-0.428;2022-11-18T17:29:10;11.50;99.90
20744;DHT22;56303;52.160;-0.428;2022-11-18T17:31:38;11.50;99.90
20744;DHT22;56303;52.160;-0.428;2022-11-18T17:34:05;11.60;99.90
20744;DHT22;56303;52.160;-0.428;2022-11-18T17:36:32;11.60;99.90